createdAt,value
2024-04-23T00:03:46.547Z,60.98
2024-04-23T00:08:49.257Z,57.02
2024-04-23T00:13:52.038Z,60.23
2024-04-23T00:18:54.861Z,67.29
2024-04-23T00:23:57.910Z,62.81
2024-04-23T00:29:00.588Z,57.76
2024-04-23T00:34:03.234Z,60.22
2024-04-23T00:39:05.893Z,66.03
2024-04-23T00:44:08.567Z,61.23
2024-04-23T00:49:17.502Z,57.18
2024-04-23T00:54:25.802Z,62.86
2024-04-23T00:59:29.241Z,64.63
2024-04-23T01:04:31.894Z,58.30
2024-04-23T01:09:34.546Z,59.46
2024-04-23T01:14:41.521Z,65.67
2024-04-23T01:19:47.824Z,61.85
2024-04-23T01:25:08.285Z,57.19
2024-04-23T01:30:12.570Z,62.02
2024-04-23T01:35:17.217Z,65.20
2024-04-23T01:40:21.371Z,59.91
2024-04-23T01:45:25.482Z,57.34
2024-04-23T01:50:28.189Z,61.79
2024-04-23T01:55:30.972Z,66.69
2024-04-23T02:00:37.627Z,60.56
2024-04-23T02:05:42.323Z,57.23
2024-04-23T02:10:46.085Z,61.73
2024-04-23T02:15:48.765Z,67.01
2024-04-23T02:20:52.086Z,61.31
2024-04-23T02:25:54.736Z,56.96
2024-04-23T02:30:57.358Z,60.60
2024-04-23T02:36:00.038Z,65.89
2024-04-23T02:41:02.736Z,60.85
2024-04-23T02:46:05.437Z,56.90
2024-04-23T02:51:08.611Z,60.64
2024-04-23T02:56:11.204Z,66.22
2024-04-23T03:01:14.241Z,62.51
2024-04-23T03:06:17.836Z,57.36
2024-04-23T03:11:20.504Z,59.58
2024-04-23T03:16:23.212Z,63.32
2024-04-23T03:21:25.855Z,67.82
2024-04-23T03:26:28.876Z,61.13
2024-04-23T03:31:31.502Z,56.82
2024-04-23T03:36:34.241Z,59.57
2024-04-23T03:41:36.922Z,66.20
2024-04-23T03:46:39.962Z,63.40
2024-04-23T03:51:42.602Z,57.55
2024-04-23T03:56:45.232Z,59.92
2024-04-23T04:01:47.943Z,66.22
2024-04-23T04:06:50.938Z,60.64
2024-04-23T04:11:57.724Z,56.79
2024-04-23T04:17:00.826Z,61.25
2024-04-23T04:22:03.650Z,66.26
2024-04-23T04:27:06.289Z,59.59
2024-04-23T04:32:10.037Z,57.70
2024-04-23T04:37:12.728Z,61.57
2024-04-23T04:42:15.399Z,65.48
2024-04-23T04:47:18.031Z,58.26
2024-04-23T04:52:20.685Z,58.36
2024-04-23T04:57:23.298Z,61.29
2024-04-23T05:02:26.004Z,68.11
2024-04-23T05:07:29.024Z,62.43
2024-04-23T05:12:31.756Z,56.91
2024-04-23T05:17:36.986Z,60.03
2024-04-23T05:22:39.831Z,66.16
2024-04-23T05:27:42.509Z,59.80
2024-04-23T05:32:48.574Z,57.57
2024-04-23T05:37:52.000Z,60.03
2024-04-23T05:42:54.840Z,63.54
2024-04-23T05:48:35.493Z,56.39
2024-04-23T05:54:16.351Z,57.90
2024-04-23T05:59:19.174Z,60.66
2024-04-23T06:04:22.346Z,63.50
2024-04-23T06:09:26.908Z,57.74
2024-04-23T06:14:29.983Z,52.20
2024-04-23T06:19:33.315Z,45.73
2024-04-23T06:24:35.930Z,37.06
2024-04-23T06:29:38.658Z,39.14
2024-04-23T06:34:42.629Z,35.97
2024-04-23T06:39:45.436Z,35.26
2024-04-23T06:44:48.253Z,29.74
2024-04-23T06:49:50.941Z,34.34
2024-04-23T06:54:53.673Z,36.69
2024-04-23T06:59:56.614Z,40.75
2024-04-23T07:04:59.571Z,40.84
2024-04-23T07:10:03.571Z,46.66
2024-04-23T07:15:06.696Z,44.48
2024-04-23T07:20:10.731Z,47.11
2024-04-23T07:25:14.846Z,47.58
2024-04-23T07:30:27.978Z,48.49
2024-04-23T07:35:37.725Z,45.50
2024-04-23T07:40:55.511Z,46.82
2024-04-23T07:46:12.076Z,46.38
2024-04-23T07:51:14.943Z,48.04
2024-04-23T07:56:20.387Z,46.60
2024-04-23T08:01:23.335Z,45.35
2024-04-23T08:06:25.977Z,45.91
2024-04-23T08:11:31.421Z,45.67
2024-04-23T08:16:34.824Z,45.41
2024-04-23T08:21:40.735Z,40.93
2024-04-23T08:26:44.346Z,40.67
2024-04-23T08:31:46.995Z,40.13
2024-04-23T08:36:49.825Z,42.04
2024-04-23T08:41:53.807Z,42.72
2024-04-23T08:46:59.846Z,44.33
2024-04-23T08:52:02.776Z,45.37
2024-04-23T08:57:11.158Z,46.50
2024-04-23T09:02:31.064Z,48.16
2024-04-23T09:07:36.309Z,47.52
2024-04-23T09:12:39.618Z,47.80
2024-04-23T09:17:55.260Z,47.92
2024-04-23T09:23:02.794Z,48.00
2024-04-23T09:28:10.253Z,48.18
2024-04-23T09:33:13.764Z,46.96
2024-04-23T09:38:16.821Z,47.46
2024-04-23T09:43:23.683Z,47.34
2024-04-23T09:48:35.698Z,47.33
2024-04-23T09:53:40.143Z,49.06
2024-04-23T09:58:43.013Z,49.14
2024-04-23T10:03:48.457Z,48.73
2024-04-23T10:09:09.155Z,47.21
2024-04-23T10:14:28.856Z,47.00
2024-04-23T10:19:38.327Z,46.56
2024-04-23T10:24:48.288Z,47.58
2024-04-23T10:29:55.141Z,45.85
2024-04-23T10:35:03.508Z,48.13
2024-04-23T10:40:14.268Z,46.70
2024-04-23T10:45:18.324Z,44.83
2024-04-23T10:50:32.576Z,46.57
2024-04-23T10:55:35.659Z,47.19
2024-04-23T11:00:39.072Z,48.31
2024-04-23T11:05:49.914Z,47.67
2024-04-23T11:11:03.205Z,48.52
2024-04-23T11:16:32.105Z,49.22
2024-04-23T11:21:43.548Z,48.47
2024-04-23T11:26:51.716Z,49.12
2024-04-23T11:31:59.864Z,49.24
2024-04-23T11:37:02.896Z,50.51
2024-04-23T11:42:13.067Z,51.04
2024-04-23T11:47:16.332Z,51.82
2024-04-23T11:52:20.794Z,51.67
2024-04-23T11:57:24.240Z,51.59
2024-04-23T12:02:27.356Z,51.50
2024-04-23T12:07:34.154Z,50.28
2024-04-23T12:12:38.372Z,50.34
2024-04-23T12:17:41.236Z,50.03
2024-04-23T12:22:46.798Z,48.35
2024-04-23T12:27:50.247Z,50.06
2024-04-23T12:32:56.428Z,50.26
2024-04-23T12:38:00.798Z,50.16
2024-04-23T12:43:15.324Z,51.11
2024-04-23T12:48:18.534Z,50.62
2024-04-23T12:53:22.424Z,50.81
2024-04-23T12:58:29.331Z,50.02
2024-04-23T13:03:33.224Z,51.04
2024-04-23T13:08:36.601Z,50.94
2024-04-23T13:13:39.410Z,51.59
2024-04-23T13:18:42.202Z,50.93
2024-04-23T13:23:45.156Z,50.17
2024-04-23T13:28:48.381Z,50.19
2024-04-23T13:33:51.953Z,49.05
2024-04-23T13:38:54.994Z,50.32
2024-04-23T13:43:57.703Z,49.16
2024-04-23T13:49:00.394Z,47.04
2024-04-23T13:54:03.200Z,48.83
2024-04-23T13:59:06.255Z,48.91
2024-04-23T14:04:12.863Z,48.02
2024-04-23T14:09:17.065Z,48.21
2024-04-23T14:14:20.318Z,47.06
2024-04-23T14:19:25.744Z,46.81
2024-04-23T14:24:29.860Z,47.37
2024-04-23T14:29:34.766Z,47.53
2024-04-23T14:34:37.447Z,48.46
2024-04-23T14:39:40.096Z,48.72
2024-04-23T14:44:42.906Z,49.03
2024-04-23T14:49:45.719Z,48.57
2024-04-23T14:54:48.626Z,48.96
2024-04-23T14:59:53.579Z,49.15
2024-04-23T15:04:56.452Z,50.15
2024-04-23T15:10:01.859Z,49.62
2024-04-23T15:15:05.324Z,49.44
2024-04-23T15:20:08.227Z,48.60
2024-04-23T15:25:11.097Z,48.13
2024-04-23T15:30:16.282Z,49.13
2024-04-23T15:35:19.353Z,49.54
2024-04-23T15:40:22.397Z,48.91
2024-04-23T15:45:26.517Z,48.28
2024-04-23T15:50:29.213Z,48.44
2024-04-23T15:55:32.052Z,48.50
2024-04-23T16:00:36.171Z,49.19
2024-04-23T16:05:40.502Z,49.84
2024-04-23T16:10:43.368Z,50.18
2024-04-23T16:15:46.488Z,49.96
2024-04-23T16:20:49.603Z,49.95
2024-04-23T16:25:52.687Z,50.17
2024-04-23T16:31:05.868Z,50.60
2024-04-23T16:36:09.773Z,51.07
2024-04-23T16:41:12.494Z,51.54
2024-04-23T16:46:17.301Z,51.56
2024-04-23T16:51:19.970Z,51.42
2024-04-23T16:56:22.634Z,51.37
2024-04-23T17:01:25.501Z,51.51
2024-04-23T17:06:30.808Z,51.70
2024-04-23T17:11:33.543Z,52.25
2024-04-23T17:16:36.569Z,52.20
2024-04-23T17:21:40.563Z,52.25
2024-04-23T17:26:43.287Z,52.56
2024-04-23T17:31:46.065Z,52.60
2024-04-23T17:36:48.867Z,53.02
2024-04-23T17:41:52.647Z,53.63
2024-04-23T17:46:56.045Z,53.94
2024-04-23T17:51:59.874Z,54.10
2024-04-23T17:57:05.774Z,54.56
2024-04-23T18:02:08.420Z,54.93
2024-04-23T18:07:11.110Z,55.01
2024-04-23T18:12:14.015Z,55.35
2024-04-23T18:17:17.449Z,55.60
2024-04-23T18:22:20.297Z,56.13
2024-04-23T18:27:24.260Z,56.70
2024-04-23T18:32:27.002Z,57.09
2024-04-23T18:37:30.399Z,57.59
2024-04-23T18:42:33.367Z,57.47
2024-04-23T18:47:36.196Z,57.73
2024-04-23T18:52:39.575Z,58.21
2024-04-23T18:57:42.340Z,58.47
2024-04-23T19:02:45.129Z,58.57
2024-04-23T19:07:47.971Z,59.02
2024-04-23T19:12:54.450Z,59.09
2024-04-23T19:18:00.964Z,58.97
2024-04-23T19:23:03.874Z,58.84
2024-04-23T19:28:07.447Z,59.33
2024-04-23T19:33:10.194Z,59.84
2024-04-23T19:38:13.033Z,59.86
2024-04-23T19:43:15.936Z,59.70
2024-04-23T19:48:20.023Z,59.85
2024-04-23T19:53:24.227Z,59.96
2024-04-23T19:58:46.075Z,59.96
2024-04-23T20:03:49.592Z,59.83
2024-04-23T20:08:52.363Z,59.79
2024-04-23T20:13:55.035Z,60.02
2024-04-23T20:18:58.402Z,59.69
2024-04-23T20:24:01.263Z,59.88
2024-04-23T20:29:04.984Z,59.80
2024-04-23T20:34:07.705Z,60.36
2024-04-23T20:39:14.175Z,60.44
2024-04-23T20:44:16.980Z,61.05
2024-04-23T20:49:19.825Z,60.71
2024-04-23T20:54:22.460Z,61.18
2024-04-23T20:59:25.408Z,61.62
2024-04-23T21:04:28.604Z,70.19
2024-04-23T21:09:31.255Z,69.43
2024-04-23T21:14:33.965Z,60.17
2024-04-23T21:19:36.597Z,54.68
2024-04-23T21:24:39.394Z,56.40
2024-04-23T21:29:42.954Z,58.17
2024-04-23T21:34:45.637Z,59.81
2024-04-23T21:39:48.267Z,60.46
2024-04-23T21:44:51.898Z,61.54
2024-04-23T21:49:54.569Z,68.52
2024-04-23T21:54:59.303Z,64.47
2024-04-23T22:00:02.154Z,56.25
2024-04-23T22:05:07.178Z,57.26
2024-04-23T22:10:10.047Z,59.52
2024-04-23T22:15:14.544Z,60.70
2024-04-23T22:20:19.993Z,61.85
2024-04-23T22:25:22.759Z,68.06
2024-04-23T22:30:25.516Z,63.51
2024-04-23T22:35:30.294Z,55.30
2024-04-23T22:40:32.946Z,56.57
2024-04-23T22:45:35.582Z,58.85
2024-04-23T22:50:38.255Z,59.89
2024-04-23T22:55:41.258Z,60.52
2024-04-23T23:00:43.936Z,61.63
2024-04-23T23:05:46.572Z,67.57
2024-04-23T23:10:49.256Z,62.76
2024-04-23T23:15:52.013Z,54.68
2024-04-23T23:20:54.955Z,56.17
2024-04-23T23:25:57.682Z,57.58
2024-04-23T23:31:00.430Z,58.95
2024-04-23T23:36:03.214Z,60.01
2024-04-23T23:41:05.979Z,61.14
2024-04-23T23:46:08.658Z,61.08
2024-04-23T23:51:12.588Z,61.27
2024-04-23T23:56:15.304Z,67.67
